This is the latest recevied weather packets stored in our database for station/object HB9BTL-13. If no packets are shown the sender has not sent any weather packets the latest 10 day(s).
| Time | Temp. | Humidity | Pressure | Rain* | Wind** | Luminosity | Snow |
|---|---|---|---|---|---|---|---|
| 1787673696 | 25° C | 71% | 1013.4 hPa | - | - | - | - |
| 1787672791 | 25.56° C | 68% | 1013.4 hPa | - | - | - | - |
| 1787671886 | 25.56° C | 68% | 1013.3 hPa | - | - | - | - |
| 1787670980 | 25° C | 70% | 1013.4 hPa | - | - | - | - |
| 1787670075 | 25° C | 72% | 1013.5 hPa | - | - | - | - |
| 1787669169 | 26.11° C | 66% | 1013.4 hPa | - | - | - | - |
| 1787668264 | 25.56° C | 68% | 1013.4 hPa | - | - | - | - |
| 1787667358 | 25.56° C | 70% | 1013.5 hPa | - | - | - | - |
| 1787666453 | 25° C | 74% | 1013.5 hPa | - | - | - | - |
| 1787665547 | 24.44° C | 74% | 1013.4 hPa | - | - | - | - |
| 1787664642 | 24.44° C | 72% | 1013.4 hPa | - | - | - | - |
| 1787663737 | 25° C | 72% | 1013.4 hPa | - | - | - | - |
| 1787662831 | 24.44° C | 76% | 1013.5 hPa | - | - | - | - |
| 1787661926 | 23.89° C | 79% | 1013.5 hPa | - | - | - | - |
| 1787661021 | 23.89° C | 81% | 1013.6 hPa | - | - | - | - |
| 1787660116 | 23.33° C | 86% | 1013.6 hPa | - | - | - | - |
| 1787659210 | 22.22° C | 91% | 1013.5 hPa | - | - | - | - |
| 1787658305 | 22.22° C | 91% | 1013.8 hPa | - | - | - | - |
| 1787657399 | 21.67° C | 93% | 1013.9 hPa | - | - | - | - |
| 1787656494 | 21.67° C | 98% | 1014 hPa | - | - | - | - |
| 1787655588 | 21.67° C | 96% | 1014.1 hPa | - | - | - | - |
| 1787654683 | 21.67° C | 98% | 1014.1 hPa | - | - | - | - |
| 1787653778 | 21.67° C | 99% | 1013.9 hPa | - | - | - | - |
| 1787652872 | 21.11° C | 10% | - | - | - | - | - |
| 1787651967 | 20.56° C | 10% | - | - | - | - | - |
* Rain since midnight (hover to see other rain measurements)
** Current wind speed in m/s (hover to see current wind gust speed)